CXE weather

Chase City Municipal Airport
Chase City, Virginia, United States

Public forecast

Using degrees Fahrenheit for public forecast. Weather courtesy of forecast.io.

Current aviation weather report (METAR) for Chase City Municipal Airport

Retrieved 2019/11/16 20:35 UTC (0 seconds ago):

KCXE 162035Z AUTO 04010G16KT 350V070 10SM SCT033 BKN120 07/00 A3020 RMK AO1 T00711005

Closest aviation forecast (TAF) to Chase City Municipal Airport

Closest forecast is Danville Regional Airport, 42.2 nm (78.2 km) WSW. Retrieved 2019/11/16 18:22 UTC (2 hours ago):

TAF KDAN 161720Z 1618/1718 04018G28KT P6SM SCT070 FM162300 03015KT P6SM BKN060 FM170300 03012KT P6SM OVC040 FM170900 02010KT P6SM OVC030 FM171600 02012KT P6SM BKN035